Карточка аэропорта UAKK

Внимание!
Информация на этой странице в стадии наполнения.
Если вы не увидели какой-то информации, или заметили неточность - пожалуйста сообщите нам!
Спасибо!
Команда RU-STAFF
Название аэропортаКараганда
Название аэропорта (англ.)Karaganda
Превышение1768 ft. (538.9 m.)
Координаты49°40.302', 73°20.118'
Высота перехода10000
Эшелон переходаby ATC
Коды ответчика0630-0637, 7220-7227
Зона ОрВДАстана РПИ (UACN)
Данные METARUAKK 181300Z 24002MPS 9999 BKN050CB 17/14 Q1006 NOSIG RMK QFE708/0944
Проноз погоды (TAF)UAKK 181104Z 1812/1912 15005MPS 9999 BKN030 BKN100 TX18/1909Z TN11/1901Z TEMPO 1812/1818 VRB16MPS 3100 -TSRA SQ BKN030CB BECMG 1818/1820 22009MPS TEMPO 1818/1823 VRB20MPS 2000 TSRA SQ BKN011 BKN020CB TEMPO 1823/1906 24013MPS 5000 -SHRA BKN007 BKN020CB TEMPO 1906/1912 23014MPS 5000 -SHRA BKN015CB
NOTAMshow/hide NOTAM
AWOS   TABLE

Информация о ВПП

ВПП Длина ВПП (м.) Покрытие Курс ВПП Частота ILS
233601Железобетон230111.7
053601Железобетон50109.9

Диспетчерские позиции




Спутниковое изображение